• Join FlightAware (Why Join?)
  • Login
  • US Flag 
04:00PM EDT


 

Airport Tracker/Info


-or-


 

Live Flight TrackerFlight Track Log ✈ RPA3436 ✈ 30-Jun-2013 ✈ KDCA - KALB

Flight Track Log - Related Links

Times and Time Zones

All times are in EDT time to prevent confusion due to time zone crossing. See the RPA3436 flight status page for this flight to view local times or setup timezone preferences in your user account.

Time Position Orientation Groundspeed Altitude Reporting Facility
EDT Latitude Longitude Course Direction KTS MPH feet Rate Location/Type
10:07AM 38.8214 -77.0383 61° Northeast 158 182 1,300  Level Washington Center
10:08AM 38.7672 -77.0347 177° South 174 200 3,300 2,340 Climbing Washington Center
10:09AM 38.9558 -76.7160 67° East  Level FlightAware Approximate
10:09AM 38.7578 -76.9519 98° East 169 194 6,000  Level Washington Center
10:10AM 38.9968 -76.6097 67° East  Level FlightAware Approximate
10:10AM 38.8083 -76.8997 39° Northeast 167 192 8,700  Level Washington Center
10:11AM 39.0385 -76.5038 63° Northeast  Level FlightAware Approximate
10:11AM 38.8739 -76.7942 51° Northeast 263 303 11,800  Level Washington Center
10:12AM 39.0817 -76.3984 61° Northeast  Level FlightAware Approximate
10:12AM 38.9272 -76.6856 58° Northeast 302 348 13,700  Level Washington Center
10:13AM 38.9717 -76.5928 58° Northeast 342 394 15,600 1,620 Climbing Washington Center
10:14AM 39.0706 -76.4792 42° Northeast 374 430 17,000 1,500 Climbing Washington Center
10:15AM 39.1547 -76.3867 40° Northeast 390 449 18,600 1,320 Climbing Washington Center
10:16AM 39.1889 -76.2450 73° East 400 460 19,700 1,320 Climbing Washington Center
10:17AM 39.1936 -76.1031 87° East 392 451 21,300 1,620 Climbing Washington Center
10:18AM 39.1942 -75.9425 90° East 419 482 22,900 1,560 Climbing Washington Center
10:19AM 39.2569 -75.7953 61° Northeast 439 505 24,400 1,320 Climbing Washington Center
10:20AM 39.3531 -75.6722 45° Northeast 458 527 25,700 1,080 Climbing Washington Center
10:21AM 39.4511 -75.5486 44° Northeast 469 540 26,600 660 Climbing Washington Center
10:22AM 39.5508 -75.4167 46° Northeast 486 559 27,000 180 Climbing Washington Center
10:23AM 39.6464 -75.2925 45° Northeast 492 566 27,000  Level Washington Center
10:24AM 39.7203 -75.1889 47° Northeast 494 568 27,000  Level New York Center
10:25AM 39.8347 -75.0231 48° Northeast 495 570 27,000  Level New York Center
10:26AM 39.9358 -74.8750 48° Northeast 526 605 27,000  Level New York Center
10:27AM 40.0147 -74.7658 47° Northeast 501 577 27,000  Level New York Center
10:28AM 40.1086 -74.6328 47° Northeast 501 577 27,000  Level New York Center
10:29AM 40.2025 -74.4994 47° Northeast 496 571 27,000  Level New York Center
10:30AM 40.3061 -74.3853 40° Northeast 490 564 27,000  Level New York Center
10:31AM 40.4139 -74.2683 40° Northeast 490 564 27,000  Level New York Center
10:32AM 40.5194 -74.1564 39° Northeast 490 564 27,000 -240 Level New York Center
10:33AM 40.6269 -74.0386 40° Northeast 490 564 26,600 -1,140 Descending New York Center
10:34AM 40.8014 -73.8547 39° Northeast 503 579 24,000 -1,020 Descending Boston Center
10:35AM 40.9050 -73.7281 43° Northeast 480 552 24,000 -540 Level Boston Center
10:36AM 41.0103 -73.6311 35° Northeast 465 535 23,000 -600 Descending Boston Center
10:37AM 41.1067 -73.5861 19° North 452 520 22,900 -1,080 Descending Boston Center
10:38AM 41.2469 -73.5139 21° North 452 520 20,900 -1,860 Descending Boston Center
10:39AM 41.3600 -73.4606 19° North 446 513 19,200 -960 Descending Boston Center
10:40AM 41.4583 -73.4094 21° North 423 487 19,000 -360 Descending Boston Center
10:41AM 41.5819 -73.3558 18° North 423 487 18,500 -1,020 Descending Boston Center
10:42AM 41.6667 -73.4183 331° Northwest 368 423 17,000 -1,560 Descending Boston Center
10:43AM 41.7575 -73.5114 323° Northwest 368 423 15,400 -1,500 Descending Boston Center
10:44AM 41.8319 -73.5853 324° Northwest 374 430 14,000 -1,500 Descending Boston Center
10:45AM 41.9256 -73.6064 350° North 362 417 12,700 -1,260 Descending Boston Center
10:47AM 42.0564 -73.6369 350° North 356 410 11,000 -720 Descending Boston Center
10:48AM 42.1708 -73.6669 349° North 351 404 11,000 -60 Level Boston Center
10:49AM 42.2436 -73.6742 356° North 346 398 10,900 -780 Descending Boston Center
10:50AM 42.3311 -73.6758 359° North 304 350 9,700 -1,500 Descending Boston Center
10:51AM 42.4167 -73.6747 North 299 344 7,900 -1,800 Descending Boston Center
10:52AM 42.5042 -73.6736 North 294 338 6,100 -1,440 Descending Boston Center
10:53AM 42.5811 -73.6808 356° North 283 326 5,100 -1,080 Descending Boston Center
10:54AM 42.6583 -73.6850 358° North 279 321 4,000 -780 Descending Boston Center
10:55AM 42.7311 -73.6950 354° North 263 303 3,600 -480 Descending Boston Center
10:56AM 42.7997 -73.7192 346° North 194 223 3,000 -960 Descending Boston Center
10:57AM 42.8008 -73.7869 271° West 175 201 1,600 -1,260 Descending Boston Center
10:58AM 42.7653 -73.8061 202° Southwest 149 171 500 -1,140 Descending Boston Center